sensor_id;sensor_type;location;lat;lon;timestamp;P1;durP1;ratioP1;P2;durP2;ratioP2
74371;SDS011;62885;51.374;6.170;2023-04-27T00:01:37;7.85;;;4.18;;
74371;SDS011;62885;51.374;6.170;2023-04-27T00:04:03;7.57;;;4.07;;
74371;SDS011;62885;51.374;6.170;2023-04-27T00:06:29;10.77;;;4.65;;
74371;SDS011;62885;51.374;6.170;2023-04-27T00:08:54;11.38;;;4.40;;
74371;SDS011;62885;51.374;6.170;2023-04-27T00:11:20;7.13;;;3.88;;
74371;SDS011;62885;51.374;6.170;2023-04-27T00:13:45;6.78;;;3.58;;
74371;SDS011;62885;51.374;6.170;2023-04-27T00:16:10;7.07;;;3.47;;
74371;SDS011;62885;51.374;6.170;2023-04-27T00:18:36;9.07;;;4.13;;
74371;SDS011;62885;51.374;6.170;2023-04-27T00:21:02;10.40;;;4.30;;
74371;SDS011;62885;51.374;6.170;2023-04-27T00:23:27;6.25;;;3.28;;
74371;SDS011;62885;51.374;6.170;2023-04-27T00:25:53;9.18;;;4.28;;
74371;SDS011;62885;51.374;6.170;2023-04-27T00:28:18;7.57;;;3.83;;
74371;SDS011;62885;51.374;6.170;2023-04-27T00:30:43;9.75;;;3.78;;
74371;SDS011;62885;51.374;6.170;2023-04-27T00:33:09;8.95;;;4.28;;
74371;SDS011;62885;51.374;6.170;2023-04-27T00:35:34;9.45;;;4.18;;
74371;SDS011;62885;51.374;6.170;2023-04-27T00:37:59;8.73;;;3.70;;
74371;SDS011;62885;51.374;6.170;2023-04-27T00:40:25;7.88;;;3.72;;
74371;SDS011;62885;51.374;6.170;2023-04-27T00:42:50;11.82;;;4.78;;
74371;SDS011;62885;51.374;6.170;2023-04-27T00:45:16;7.25;;;3.88;;
74371;SDS011;62885;51.374;6.170;2023-04-27T00:47:41;9.40;;;4.30;;
74371;SDS011;62885;51.374;6.170;2023-04-27T00:50:07;8.07;;;3.83;;
74371;SDS011;62885;51.374;6.170;2023-04-27T00:52:37;8.85;;;4.03;;
74371;SDS011;62885;51.374;6.170;2023-04-27T00:55:03;7.32;;;3.65;;
74371;SDS011;62885;51.374;6.170;2023-04-27T00:57:30;9.45;;;4.22;;
74371;SDS011;62885;51.374;6.170;2023-04-27T00:59:58;8.15;;;3.42;;
74371;SDS011;62885;51.374;6.170;2023-04-27T01:02:24;10.20;;;3.50;;
74371;SDS011;62885;51.374;6.170;2023-04-27T01:04:50;9.43;;;4.63;;
74371;SDS011;62885;51.374;6.170;2023-04-27T01:07:16;9.35;;;4.03;;
74371;SDS011;62885;51.374;6.170;2023-04-27T01:09:41;8.55;;;4.35;;
74371;SDS011;62885;51.374;6.170;2023-04-27T01:12:06;8.75;;;3.78;;
74371;SDS011;62885;51.374;6.170;2023-04-27T01:14:32;10.18;;;4.30;;
74371;SDS011;62885;51.374;6.170;2023-04-27T01:16:57;10.02;;;4.45;;
74371;SDS011;62885;51.374;6.170;2023-04-27T01:19:23;9.57;;;3.95;;
74371;SDS011;62885;51.374;6.170;2023-04-27T01:21:49;8.38;;;3.97;;
74371;SDS011;62885;51.374;6.170;2023-04-27T01:24:14;8.13;;;3.80;;
74371;SDS011;62885;51.374;6.170;2023-04-27T01:26:40;9.13;;;4.45;;
74371;SDS011;62885;51.374;6.170;2023-04-27T01:29:06;10.20;;;3.90;;
74371;SDS011;62885;51.374;6.170;2023-04-27T01:31:31;10.95;;;3.80;;
74371;SDS011;62885;51.374;6.170;2023-04-27T01:33:56;10.02;;;3.75;;
74371;SDS011;62885;51.374;6.170;2023-04-27T01:36:22;8.70;;;4.38;;
74371;SDS011;62885;51.374;6.170;2023-04-27T01:38:47;8.18;;;3.88;;
74371;SDS011;62885;51.374;6.170;2023-04-27T01:41:12;9.15;;;4.20;;
74371;SDS011;62885;51.374;6.170;2023-04-27T01:43:38;7.60;;;3.30;;
74371;SDS011;62885;51.374;6.170;2023-04-27T01:46:04;9.02;;;4.15;;
74371;SDS011;62885;51.374;6.170;2023-04-27T01:48:30;10.65;;;4.75;;
74371;SDS011;62885;51.374;6.170;2023-04-27T01:50:56;10.40;;;4.10;;
74371;SDS011;62885;51.374;6.170;2023-04-27T01:53:21;10.00;;;4.07;;
74371;SDS011;62885;51.374;6.170;2023-04-27T01:55:46;8.60;;;4.55;;
74371;SDS011;62885;51.374;6.170;2023-04-27T01:58:11;7.50;;;3.95;;
74371;SDS011;62885;51.374;6.170;2023-04-27T02:00:37;9.10;;;4.35;;
74371;SDS011;62885;51.374;6.170;2023-04-27T02:03:02;8.95;;;4.75;;
74371;SDS011;62885;51.374;6.170;2023-04-27T02:05:28;7.90;;;4.03;;
74371;SDS011;62885;51.374;6.170;2023-04-27T02:07:53;9.02;;;5.53;;
74371;SDS011;62885;51.374;6.170;2023-04-27T02:10:18;9.10;;;4.40;;
74371;SDS011;62885;51.374;6.170;2023-04-27T02:12:46;8.75;;;4.35;;
74371;SDS011;62885;51.374;6.170;2023-04-27T02:15:12;9.65;;;4.05;;
74371;SDS011;62885;51.374;6.170;2023-04-27T02:17:37;7.97;;;4.28;;
74371;SDS011;62885;51.374;6.170;2023-04-27T02:20:03;10.90;;;4.00;;
74371;SDS011;62885;51.374;6.170;2023-04-27T02:22:32;8.65;;;4.32;;
74371;SDS011;62885;51.374;6.170;2023-04-27T02:24:58;8.90;;;3.85;;
74371;SDS011;62885;51.374;6.170;2023-04-27T02:27:24;7.38;;;3.65;;
74371;SDS011;62885;51.374;6.170;2023-04-27T02:29:49;8.10;;;3.53;;
74371;SDS011;62885;51.374;6.170;2023-04-27T02:32:14;11.00;;;3.75;;
74371;SDS011;62885;51.374;6.170;2023-04-27T02:34:40;8.27;;;3.35;;
74371;SDS011;62885;51.374;6.170;2023-04-27T02:37:05;10.77;;;4.35;;
74371;SDS011;62885;51.374;6.170;2023-04-27T02:39:30;9.55;;;4.57;;
74371;SDS011;62885;51.374;6.170;2023-04-27T02:41:56;7.28;;;3.85;;
74371;SDS011;62885;51.374;6.170;2023-04-27T02:44:21;9.57;;;4.53;;
74371;SDS011;62885;51.374;6.170;2023-04-27T02:46:46;10.40;;;4.13;;
74371;SDS011;62885;51.374;6.170;2023-04-27T02:49:12;10.27;;;3.70;;
74371;SDS011;62885;51.374;6.170;2023-04-27T02:51:37;8.27;;;3.72;;
74371;SDS011;62885;51.374;6.170;2023-04-27T02:54:02;7.80;;;4.05;;
74371;SDS011;62885;51.374;6.170;2023-04-27T02:56:28;10.65;;;4.05;;
74371;SDS011;62885;51.374;6.170;2023-04-27T02:58:53;5.97;;;3.55;;
74371;SDS011;62885;51.374;6.170;2023-04-27T03:01:18;9.75;;;4.15;;
74371;SDS011;62885;51.374;6.170;2023-04-27T03:03:44;7.78;;;3.55;;
74371;SDS011;62885;51.374;6.170;2023-04-27T03:06:11;7.40;;;3.05;;
74371;SDS011;62885;51.374;6.170;2023-04-27T03:08:37;8.57;;;3.63;;
74371;SDS011;62885;51.374;6.170;2023-04-27T03:11:02;12.40;;;4.32;;
74371;SDS011;62885;51.374;6.170;2023-04-27T03:13:28;8.23;;;3.90;;
74371;SDS011;62885;51.374;6.170;2023-04-27T03:15:53;9.48;;;4.30;;
74371;SDS011;62885;51.374;6.170;2023-04-27T03:18:21;7.88;;;3.58;;
74371;SDS011;62885;51.374;6.170;2023-04-27T03:20:46;11.00;;;4.05;;
74371;SDS011;62885;51.374;6.170;2023-04-27T03:23:11;9.30;;;4.18;;
74371;SDS011;62885;51.374;6.170;2023-04-27T03:25:37;11.13;;;3.95;;
74371;SDS011;62885;51.374;6.170;2023-04-27T03:28:02;10.32;;;3.55;;
74371;SDS011;62885;51.374;6.170;2023-04-27T03:30:28;7.97;;;4.45;;
74371;SDS011;62885;51.374;6.170;2023-04-27T03:32:53;10.40;;;4.20;;
74371;SDS011;62885;51.374;6.170;2023-04-27T03:35:19;8.25;;;3.95;;
74371;SDS011;62885;51.374;6.170;2023-04-27T03:37:44;6.82;;;3.38;;
74371;SDS011;62885;51.374;6.170;2023-04-27T03:40:10;7.50;;;3.80;;
74371;SDS011;62885;51.374;6.170;2023-04-27T03:42:36;7.00;;;3.70;;
74371;SDS011;62885;51.374;6.170;2023-04-27T03:45:02;8.35;;;3.83;;
74371;SDS011;62885;51.374;6.170;2023-04-27T03:47:27;8.70;;;4.45;;
74371;SDS011;62885;51.374;6.170;2023-04-27T03:49:53;9.50;;;4.75;;
74371;SDS011;62885;51.374;6.170;2023-04-27T03:52:18;21.67;;;11.20;;
74371;SDS011;62885;51.374;6.170;2023-04-27T03:54:44;11.68;;;5.78;;
74371;SDS011;62885;51.374;6.170;2023-04-27T03:57:09;14.63;;;3.63;;
74371;SDS011;62885;51.374;6.170;2023-04-27T03:59:34;8.80;;;3.88;;
74371;SDS011;62885;51.374;6.170;2023-04-27T04:02:00;7.43;;;3.92;;
74371;SDS011;62885;51.374;6.170;2023-04-27T04:04:26;17.02;;;8.18;;
74371;SDS011;62885;51.374;6.170;2023-04-27T04:06:51;11.75;;;5.88;;
74371;SDS011;62885;51.374;6.170;2023-04-27T04:09:16;10.82;;;5.07;;
74371;SDS011;62885;51.374;6.170;2023-04-27T04:11:42;8.00;;;4.15;;
74371;SDS011;62885;51.374;6.170;2023-04-27T04:14:07;11.88;;;4.60;;
74371;SDS011;62885;51.374;6.170;2023-04-27T04:16:32;10.85;;;4.10;;
74371;SDS011;62885;51.374;6.170;2023-04-27T04:18:58;9.40;;;3.60;;
74371;SDS011;62885;51.374;6.170;2023-04-27T04:21:23;8.60;;;3.58;;
74371;SDS011;62885;51.374;6.170;2023-04-27T04:23:49;8.35;;;4.20;;
74371;SDS011;62885;51.374;6.170;2023-04-27T04:26:14;8.25;;;3.65;;
74371;SDS011;62885;51.374;6.170;2023-04-27T04:28:40;10.95;;;4.00;;
74371;SDS011;62885;51.374;6.170;2023-04-27T04:31:06;10.43;;;4.32;;
74371;SDS011;62885;51.374;6.170;2023-04-27T04:33:33;12.00;;;4.32;;
74371;SDS011;62885;51.374;6.170;2023-04-27T04:36:00;12.00;;;4.32;;
74371;SDS011;62885;51.374;6.170;2023-04-27T04:38:27;9.77;;;4.05;;
74371;SDS011;62885;51.374;6.170;2023-04-27T04:40:53;9.55;;;4.15;;
74371;SDS011;62885;51.374;6.170;2023-04-27T04:43:18;10.75;;;4.05;;
74371;SDS011;62885;51.374;6.170;2023-04-27T04:45:44;7.82;;;3.90;;
74371;SDS011;62885;51.374;6.170;2023-04-27T04:48:09;7.63;;;4.28;;
74371;SDS011;62885;51.374;6.170;2023-04-27T04:50:35;9.32;;;4.78;;
74371;SDS011;62885;51.374;6.170;2023-04-27T04:53:01;8.68;;;4.72;;
74371;SDS011;62885;51.374;6.170;2023-04-27T04:55:26;7.75;;;3.95;;
74371;SDS011;62885;51.374;6.170;2023-04-27T04:57:52;8.82;;;4.10;;
74371;SDS011;62885;51.374;6.170;2023-04-27T05:00:17;9.27;;;4.43;;
74371;SDS011;62885;51.374;6.170;2023-04-27T05:02:43;10.73;;;4.55;;
74371;SDS011;62885;51.374;6.170;2023-04-27T05:05:08;10.68;;;4.30;;
74371;SDS011;62885;51.374;6.170;2023-04-27T05:07:34;7.65;;;4.18;;
74371;SDS011;62885;51.374;6.170;2023-04-27T05:09:59;10.60;;;4.55;;
74371;SDS011;62885;51.374;6.170;2023-04-27T05:12:24;9.32;;;4.35;;
74371;SDS011;62885;51.374;6.170;2023-04-27T05:14:50;12.10;;;3.83;;
74371;SDS011;62885;51.374;6.170;2023-04-27T05:17:16;10.35;;;4.25;;
74371;SDS011;62885;51.374;6.170;2023-04-27T05:19:41;8.50;;;4.20;;
74371;SDS011;62885;51.374;6.170;2023-04-27T05:22:07;10.77;;;5.32;;
74371;SDS011;62885;51.374;6.170;2023-04-27T05:24:32;9.75;;;4.30;;
74371;SDS011;62885;51.374;6.170;2023-04-27T05:26:57;9.77;;;4.45;;
74371;SDS011;62885;51.374;6.170;2023-04-27T05:29:23;12.50;;;4.57;;
74371;SDS011;62885;51.374;6.170;2023-04-27T05:31:48;10.20;;;4.43;;
74371;SDS011;62885;51.374;6.170;2023-04-27T05:34:14;12.48;;;5.03;;
74371;SDS011;62885;51.374;6.170;2023-04-27T05:36:39;9.98;;;4.45;;
74371;SDS011;62885;51.374;6.170;2023-04-27T05:39:05;9.65;;;4.50;;
74371;SDS011;62885;51.374;6.170;2023-04-27T05:41:31;8.55;;;3.85;;
74371;SDS011;62885;51.374;6.170;2023-04-27T05:43:56;7.70;;;3.55;;
74371;SDS011;62885;51.374;6.170;2023-04-27T05:46:22;8.30;;;4.63;;
74371;SDS011;62885;51.374;6.170;2023-04-27T05:48:47;10.68;;;4.53;;
74371;SDS011;62885;51.374;6.170;2023-04-27T05:51:12;9.13;;;4.43;;
74371;SDS011;62885;51.374;6.170;2023-04-27T05:53:38;8.75;;;4.47;;
74371;SDS011;62885;51.374;6.170;2023-04-27T05:56:03;12.32;;;4.32;;
74371;SDS011;62885;51.374;6.170;2023-04-27T05:58:31;10.27;;;3.90;;
74371;SDS011;62885;51.374;6.170;2023-04-27T06:00:59;11.05;;;4.18;;
74371;SDS011;62885;51.374;6.170;2023-04-27T06:03:25;7.72;;;3.65;;
74371;SDS011;62885;51.374;6.170;2023-04-27T06:05:54;9.23;;;4.22;;
74371;SDS011;62885;51.374;6.170;2023-04-27T06:08:20;8.55;;;4.10;;
74371;SDS011;62885;51.374;6.170;2023-04-27T06:10:46;7.68;;;3.58;;
74371;SDS011;62885;51.374;6.170;2023-04-27T06:13:11;8.98;;;3.78;;
74371;SDS011;62885;51.374;6.170;2023-04-27T06:15:37;9.35;;;4.13;;
74371;SDS011;62885;51.374;6.170;2023-04-27T06:18:02;7.60;;;3.83;;
74371;SDS011;62885;51.374;6.170;2023-04-27T06:20:27;9.52;;;4.50;;
74371;SDS011;62885;51.374;6.170;2023-04-27T06:22:53;10.18;;;4.15;;
74371;SDS011;62885;51.374;6.170;2023-04-27T06:25:18;10.82;;;4.55;;
74371;SDS011;62885;51.374;6.170;2023-04-27T06:27:43;11.32;;;4.00;;
74371;SDS011;62885;51.374;6.170;2023-04-27T06:30:09;10.38;;;4.10;;
74371;SDS011;62885;51.374;6.170;2023-04-27T06:32:35;11.15;;;4.53;;
74371;SDS011;62885;51.374;6.170;2023-04-27T06:35:00;8.32;;;4.28;;
74371;SDS011;62885;51.374;6.170;2023-04-27T06:37:26;10.27;;;4.00;;
74371;SDS011;62885;51.374;6.170;2023-04-27T06:39:51;8.38;;;3.35;;
74371;SDS011;62885;51.374;6.170;2023-04-27T06:42:16;10.23;;;4.28;;
74371;SDS011;62885;51.374;6.170;2023-04-27T06:44:42;9.48;;;3.75;;
74371;SDS011;62885;51.374;6.170;2023-04-27T06:47:07;7.63;;;3.90;;
74371;SDS011;62885;51.374;6.170;2023-04-27T06:49:32;14.23;;;4.75;;
74371;SDS011;62885;51.374;6.170;2023-04-27T06:51:58;7.32;;;3.53;;
74371;SDS011;62885;51.374;6.170;2023-04-27T06:54:26;9.05;;;4.18;;
74371;SDS011;62885;51.374;6.170;2023-04-27T06:56:51;9.23;;;4.43;;
74371;SDS011;62885;51.374;6.170;2023-04-27T06:59:18;9.23;;;3.83;;
74371;SDS011;62885;51.374;6.170;2023-04-27T07:01:44;8.40;;;3.63;;
74371;SDS011;62885;51.374;6.170;2023-04-27T07:04:10;9.15;;;3.28;;
74371;SDS011;62885;51.374;6.170;2023-04-27T07:06:35;7.93;;;3.85;;
74371;SDS011;62885;51.374;6.170;2023-04-27T07:09:01;8.63;;;4.18;;
74371;SDS011;62885;51.374;6.170;2023-04-27T07:11:27;10.68;;;4.18;;
74371;SDS011;62885;51.374;6.170;2023-04-27T07:13:52;7.63;;;3.38;;
74371;SDS011;62885;51.374;6.170;2023-04-27T07:16:17;9.63;;;3.72;;
74371;SDS011;62885;51.374;6.170;2023-04-27T07:18:43;9.02;;;3.80;;
74371;SDS011;62885;51.374;6.170;2023-04-27T07:21:09;9.52;;;4.20;;
74371;SDS011;62885;51.374;6.170;2023-04-27T07:23:35;7.82;;;3.70;;
74371;SDS011;62885;51.374;6.170;2023-04-27T07:26:00;8.75;;;3.42;;
74371;SDS011;62885;51.374;6.170;2023-04-27T07:28:27;11.50;;;4.05;;
74371;SDS011;62885;51.374;6.170;2023-04-27T07:30:53;10.52;;;3.85;;
74371;SDS011;62885;51.374;6.170;2023-04-27T07:33:18;7.82;;;3.80;;
74371;SDS011;62885;51.374;6.170;2023-04-27T07:35:43;10.85;;;4.03;;
74371;SDS011;62885;51.374;6.170;2023-04-27T07:38:09;8.27;;;3.45;;
74371;SDS011;62885;51.374;6.170;2023-04-27T07:40:35;8.38;;;4.30;;
74371;SDS011;62885;51.374;6.170;2023-04-27T07:43:01;8.23;;;3.45;;
74371;SDS011;62885;51.374;6.170;2023-04-27T07:45:26;8.90;;;3.55;;
74371;SDS011;62885;51.374;6.170;2023-04-27T07:47:56;9.43;;;3.63;;
74371;SDS011;62885;51.374;6.170;2023-04-27T07:50:24;12.13;;;3.92;;
74371;SDS011;62885;51.374;6.170;2023-04-27T07:52:51;10.55;;;4.45;;
74371;SDS011;62885;51.374;6.170;2023-04-27T07:55:19;10.90;;;3.55;;
74371;SDS011;62885;51.374;6.170;2023-04-27T07:57:51;7.05;;;3.40;;
74371;SDS011;62885;51.374;6.170;2023-04-27T08:00:17;7.03;;;3.83;;
74371;SDS011;62885;51.374;6.170;2023-04-27T08:02:43;8.85;;;3.72;;
74371;SDS011;62885;51.374;6.170;2023-04-27T08:05:09;4.72;;;2.35;;
74371;SDS011;62885;51.374;6.170;2023-04-27T08:07:34;7.35;;;3.17;;
74371;SDS011;62885;51.374;6.170;2023-04-27T08:10:00;10.07;;;2.90;;
74371;SDS011;62885;51.374;6.170;2023-04-27T08:12:25;8.48;;;3.45;;
74371;SDS011;62885;51.374;6.170;2023-04-27T08:14:51;7.50;;;2.85;;
74371;SDS011;62885;51.374;6.170;2023-04-27T08:17:16;8.10;;;3.47;;
74371;SDS011;62885;51.374;6.170;2023-04-27T08:19:42;6.78;;;3.22;;
74371;SDS011;62885;51.374;6.170;2023-04-27T08:22:08;8.70;;;2.97;;
74371;SDS011;62885;51.374;6.170;2023-04-27T08:24:33;9.60;;;4.00;;
74371;SDS011;62885;51.374;6.170;2023-04-27T08:26:58;7.15;;;3.10;;
74371;SDS011;62885;51.374;6.170;2023-04-27T08:29:24;8.38;;;3.40;;
74371;SDS011;62885;51.374;6.170;2023-04-27T08:31:49;9.68;;;2.92;;
74371;SDS011;62885;51.374;6.170;2023-04-27T08:34:15;7.68;;;2.65;;
74371;SDS011;62885;51.374;6.170;2023-04-27T08:36:40;8.60;;;3.00;;
74371;SDS011;62885;51.374;6.170;2023-04-27T08:39:05;7.68;;;3.22;;
74371;SDS011;62885;51.374;6.170;2023-04-27T08:41:32;8.05;;;3.00;;
74371;SDS011;62885;51.374;6.170;2023-04-27T08:43:57;6.28;;;2.40;;
74371;SDS011;62885;51.374;6.170;2023-04-27T08:46:23;4.50;;;2.15;;
74371;SDS011;62885;51.374;6.170;2023-04-27T08:48:52;4.35;;;2.25;;
74371;SDS011;62885;51.374;6.170;2023-04-27T08:51:18;5.68;;;2.10;;
74371;SDS011;62885;51.374;6.170;2023-04-27T08:53:46;3.97;;;1.73;;
74371;SDS011;62885;51.374;6.170;2023-04-27T08:56:13;4.00;;;1.98;;
74371;SDS011;62885;51.374;6.170;2023-04-27T08:58:38;3.78;;;1.52;;
74371;SDS011;62885;51.374;6.170;2023-04-27T09:01:04;6.05;;;2.20;;
74371;SDS011;62885;51.374;6.170;2023-04-27T09:03:31;6.50;;;2.42;;
74371;SDS011;62885;51.374;6.170;2023-04-27T09:05:58;4.97;;;2.30;;
74371;SDS011;62885;51.374;6.170;2023-04-27T09:08:24;5.28;;;3.08;;
74371;SDS011;62885;51.374;6.170;2023-04-27T09:10:49;8.40;;;2.47;;
74371;SDS011;62885;51.374;6.170;2023-04-27T09:13:15;6.15;;;2.58;;
74371;SDS011;62885;51.374;6.170;2023-04-27T09:15:45;7.07;;;3.17;;
74371;SDS011;62885;51.374;6.170;2023-04-27T09:18:15;8.95;;;2.90;;
74371;SDS011;62885;51.374;6.170;2023-04-27T09:20:48;6.63;;;2.10;;
74371;SDS011;62885;51.374;6.170;2023-04-27T09:23:34;5.03;;;2.17;;
74371;SDS011;62885;51.374;6.170;2023-04-27T09:26:02;5.38;;;2.38;;
74371;SDS011;62885;51.374;6.170;2023-04-27T09:28:33;6.07;;;2.55;;
74371;SDS011;62885;51.374;6.170;2023-04-27T09:31:01;6.03;;;2.53;;
74371;SDS011;62885;51.374;6.170;2023-04-27T09:33:29;6.15;;;3.38;;
74371;SDS011;62885;51.374;6.170;2023-04-27T09:35:57;7.53;;;2.85;;
74371;SDS011;62885;51.374;6.170;2023-04-27T09:38:24;6.68;;;2.90;;
74371;SDS011;62885;51.374;6.170;2023-04-27T09:40:51;4.93;;;2.50;;
74371;SDS011;62885;51.374;6.170;2023-04-27T09:43:17;7.13;;;3.42;;
74371;SDS011;62885;51.374;6.170;2023-04-27T09:45:43;8.23;;;3.00;;
74371;SDS011;62885;51.374;6.170;2023-04-27T09:48:09;6.60;;;2.97;;
74371;SDS011;62885;51.374;6.170;2023-04-27T09:50:35;5.22;;;2.80;;
74371;SDS011;62885;51.374;6.170;2023-04-27T09:53:02;5.53;;;2.22;;
74371;SDS011;62885;51.374;6.170;2023-04-27T09:55:31;6.53;;;2.67;;
74371;SDS011;62885;51.374;6.170;2023-04-27T10:09:20;6.03;;;2.30;;
74371;SDS011;62885;51.374;6.170;2023-04-27T10:11:49;5.05;;;2.38;;
74371;SDS011;62885;51.374;6.170;2023-04-27T10:14:17;6.57;;;2.42;;
74371;SDS011;62885;51.374;6.170;2023-04-27T10:16:53;7.40;;;2.53;;
74371;SDS011;62885;51.374;6.170;2023-04-27T10:21:55;5.75;;;2.25;;
74371;SDS011;62885;51.374;6.170;2023-04-27T10:24:35;4.75;;;2.28;;
74371;SDS011;62885;51.374;6.170;2023-04-27T10:27:08;5.30;;;3.15;;
74371;SDS011;62885;51.374;6.170;2023-04-27T10:29:37;5.57;;;2.85;;
74371;SDS011;62885;51.374;6.170;2023-04-27T10:32:07;6.05;;;2.88;;
74371;SDS011;62885;51.374;6.170;2023-04-27T10:34:35;10.52;;;2.30;;
74371;SDS011;62885;51.374;6.170;2023-04-27T10:37:08;6.45;;;2.63;;
74371;SDS011;62885;51.374;6.170;2023-04-27T10:39:38;5.05;;;2.45;;
74371;SDS011;62885;51.374;6.170;2023-04-27T10:42:07;5.50;;;2.28;;
74371;SDS011;62885;51.374;6.170;2023-04-27T10:44:34;7.35;;;2.80;;
74371;SDS011;62885;51.374;6.170;2023-04-27T10:47:01;5.00;;;2.33;;
74371;SDS011;62885;51.374;6.170;2023-04-27T10:49:37;7.03;;;3.20;;
74371;SDS011;62885;51.374;6.170;2023-04-27T10:52:05;7.35;;;2.95;;
74371;SDS011;62885;51.374;6.170;2023-04-27T10:54:31;7.13;;;3.08;;
74371;SDS011;62885;51.374;6.170;2023-04-27T10:57:03;5.70;;;3.35;;
74371;SDS011;62885;51.374;6.170;2023-04-27T10:59:33;7.80;;;2.85;;
74371;SDS011;62885;51.374;6.170;2023-04-27T11:02:01;5.30;;;2.60;;
74371;SDS011;62885;51.374;6.170;2023-04-27T11:04:39;6.35;;;2.75;;
74371;SDS011;62885;51.374;6.170;2023-04-27T11:07:08;7.95;;;3.35;;
74371;SDS011;62885;51.374;6.170;2023-04-27T11:09:35;5.55;;;2.88;;
74371;SDS011;62885;51.374;6.170;2023-04-27T11:12:07;8.05;;;3.00;;
74371;SDS011;62885;51.374;6.170;2023-04-27T11:14:36;4.63;;;2.60;;
74371;SDS011;62885;51.374;6.170;2023-04-27T11:17:02;5.93;;;2.80;;
74371;SDS011;62885;51.374;6.170;2023-04-27T11:19:28;6.00;;;2.83;;
74371;SDS011;62885;51.374;6.170;2023-04-27T11:22:04;5.97;;;2.47;;
74371;SDS011;62885;51.374;6.170;2023-04-27T11:24:30;5.63;;;3.03;;
74371;SDS011;62885;51.374;6.170;2023-04-27T11:26:56;6.95;;;2.95;;
74371;SDS011;62885;51.374;6.170;2023-04-27T11:29:22;6.25;;;2.63;;
74371;SDS011;62885;51.374;6.170;2023-04-27T11:31:50;8.43;;;2.85;;
74371;SDS011;62885;51.374;6.170;2023-04-27T11:34:22;7.63;;;2.85;;
74371;SDS011;62885;51.374;6.170;2023-04-27T11:36:55;5.75;;;2.70;;
74371;SDS011;62885;51.374;6.170;2023-04-27T11:39:28;7.60;;;3.05;;
74371;SDS011;62885;51.374;6.170;2023-04-27T11:42:13;7.18;;;3.28;;
74371;SDS011;62885;51.374;6.170;2023-04-27T11:44:42;8.30;;;2.72;;
74371;SDS011;62885;51.374;6.170;2023-04-27T11:47:16;7.38;;;4.00;;
74371;SDS011;62885;51.374;6.170;2023-04-27T11:49:48;6.03;;;2.95;;
74371;SDS011;62885;51.374;6.170;2023-04-27T11:52:14;7.43;;;3.38;;
74371;SDS011;62885;51.374;6.170;2023-04-27T11:54:49;6.90;;;3.13;;
74371;SDS011;62885;51.374;6.170;2023-04-27T11:57:17;5.47;;;3.17;;
74371;SDS011;62885;51.374;6.170;2023-04-27T11:59:47;8.05;;;3.30;;
74371;SDS011;62885;51.374;6.170;2023-04-27T12:02:13;9.70;;;4.05;;
74371;SDS011;62885;51.374;6.170;2023-04-27T12:04:38;7.30;;;3.08;;
74371;SDS011;62885;51.374;6.170;2023-04-27T12:07:04;7.22;;;2.80;;
74371;SDS011;62885;51.374;6.170;2023-04-27T12:09:29;7.25;;;3.47;;
74371;SDS011;62885;51.374;6.170;2023-04-27T12:11:54;8.20;;;3.03;;
74371;SDS011;62885;51.374;6.170;2023-04-27T12:14:20;6.28;;;2.97;;
74371;SDS011;62885;51.374;6.170;2023-04-27T12:16:45;8.52;;;2.72;;
74371;SDS011;62885;51.374;6.170;2023-04-27T12:19:11;8.65;;;3.92;;
74371;SDS011;62885;51.374;6.170;2023-04-27T12:21:36;6.22;;;3.22;;
74371;SDS011;62885;51.374;6.170;2023-04-27T12:24:02;8.73;;;3.50;;
74371;SDS011;62885;51.374;6.170;2023-04-27T12:26:27;9.82;;;3.70;;
74371;SDS011;62885;51.374;6.170;2023-04-27T12:28:53;5.63;;;2.92;;
74371;SDS011;62885;51.374;6.170;2023-04-27T12:31:18;7.47;;;3.25;;
74371;SDS011;62885;51.374;6.170;2023-04-27T12:33:48;8.85;;;3.28;;
74371;SDS011;62885;51.374;6.170;2023-04-27T12:36:16;8.77;;;3.63;;
74371;SDS011;62885;51.374;6.170;2023-04-27T12:38:42;7.93;;;3.00;;
74371;SDS011;62885;51.374;6.170;2023-04-27T12:41:07;8.07;;;3.45;;
74371;SDS011;62885;51.374;6.170;2023-04-27T12:43:33;7.40;;;3.40;;
74371;SDS011;62885;51.374;6.170;2023-04-27T12:46:01;7.25;;;3.22;;
74371;SDS011;62885;51.374;6.170;2023-04-27T12:48:27;6.10;;;3.30;;
74371;SDS011;62885;51.374;6.170;2023-04-27T12:50:52;7.10;;;3.50;;
74371;SDS011;62885;51.374;6.170;2023-04-27T12:53:17;6.05;;;3.28;;
74371;SDS011;62885;51.374;6.170;2023-04-27T12:55:43;7.63;;;3.35;;
74371;SDS011;62885;51.374;6.170;2023-04-27T12:58:08;6.85;;;3.53;;
74371;SDS011;62885;51.374;6.170;2023-04-27T13:00:33;7.65;;;3.28;;
74371;SDS011;62885;51.374;6.170;2023-04-27T13:02:59;6.07;;;3.30;;
74371;SDS011;62885;51.374;6.170;2023-04-27T13:05:24;6.55;;;3.50;;
74371;SDS011;62885;51.374;6.170;2023-04-27T13:07:50;9.18;;;3.13;;
74371;SDS011;62885;51.374;6.170;2023-04-27T13:10:16;8.23;;;3.20;;
74371;SDS011;62885;51.374;6.170;2023-04-27T13:12:41;8.13;;;3.83;;
74371;SDS011;62885;51.374;6.170;2023-04-27T13:15:07;7.55;;;3.80;;
74371;SDS011;62885;51.374;6.170;2023-04-27T13:17:33;12.13;;;4.50;;
74371;SDS011;62885;51.374;6.170;2023-04-27T13:19:58;8.15;;;3.67;;
74371;SDS011;62885;51.374;6.170;2023-04-27T13:22:24;9.05;;;3.58;;
74371;SDS011;62885;51.374;6.170;2023-04-27T13:24:49;9.13;;;4.05;;
74371;SDS011;62885;51.374;6.170;2023-04-27T13:27:15;7.03;;;3.28;;
74371;SDS011;62885;51.374;6.170;2023-04-27T13:29:44;6.45;;;3.58;;
74371;SDS011;62885;51.374;6.170;2023-04-27T13:32:09;8.43;;;3.13;;
74371;SDS011;62885;51.374;6.170;2023-04-27T13:34:35;8.32;;;3.55;;
74371;SDS011;62885;51.374;6.170;2023-04-27T13:37:00;9.23;;;3.92;;
74371;SDS011;62885;51.374;6.170;2023-04-27T13:39:25;7.47;;;3.45;;
74371;SDS011;62885;51.374;6.170;2023-04-27T13:41:51;8.27;;;4.03;;
74371;SDS011;62885;51.374;6.170;2023-04-27T13:44:17;8.57;;;3.67;;
74371;SDS011;62885;51.374;6.170;2023-04-27T13:46:43;7.00;;;3.60;;
74371;SDS011;62885;51.374;6.170;2023-04-27T13:49:08;7.72;;;3.00;;
74371;SDS011;62885;51.374;6.170;2023-04-27T13:51:34;9.40;;;5.03;;
74371;SDS011;62885;51.374;6.170;2023-04-27T13:54:00;7.57;;;3.05;;
74371;SDS011;62885;51.374;6.170;2023-04-27T13:56:26;6.18;;;2.95;;
74371;SDS011;62885;51.374;6.170;2023-04-27T13:58:51;7.43;;;3.28;;
74371;SDS011;62885;51.374;6.170;2023-04-27T14:01:16;7.18;;;2.85;;
74371;SDS011;62885;51.374;6.170;2023-04-27T14:03:42;7.15;;;4.03;;
74371;SDS011;62885;51.374;6.170;2023-04-27T14:06:07;6.22;;;3.15;;
74371;SDS011;62885;51.374;6.170;2023-04-27T14:08:32;8.98;;;3.20;;
74371;SDS011;62885;51.374;6.170;2023-04-27T14:10:58;6.18;;;2.63;;
74371;SDS011;62885;51.374;6.170;2023-04-27T14:13:23;7.70;;;3.10;;
74371;SDS011;62885;51.374;6.170;2023-04-27T14:15:48;6.20;;;3.10;;
74371;SDS011;62885;51.374;6.170;2023-04-27T14:18:14;6.05;;;2.90;;
74371;SDS011;62885;51.374;6.170;2023-04-27T14:20:39;6.38;;;3.45;;
74371;SDS011;62885;51.374;6.170;2023-04-27T14:23:06;8.23;;;3.25;;
74371;SDS011;62885;51.374;6.170;2023-04-27T14:25:32;7.13;;;3.30;;
74371;SDS011;62885;51.374;6.170;2023-04-27T14:28:02;9.48;;;2.83;;
74371;SDS011;62885;51.374;6.170;2023-04-27T14:30:29;8.15;;;3.50;;
74371;SDS011;62885;51.374;6.170;2023-04-27T14:32:55;6.32;;;3.13;;
74371;SDS011;62885;51.374;6.170;2023-04-27T14:35:21;8.35;;;3.20;;
74371;SDS011;62885;51.374;6.170;2023-04-27T14:37:47;7.38;;;3.50;;
74371;SDS011;62885;51.374;6.170;2023-04-27T14:40:14;8.35;;;3.55;;
74371;SDS011;62885;51.374;6.170;2023-04-27T14:42:39;9.73;;;3.63;;
74371;SDS011;62885;51.374;6.170;2023-04-27T14:45:05;7.95;;;3.17;;
74371;SDS011;62885;51.374;6.170;2023-04-27T14:47:31;8.68;;;3.83;;
74371;SDS011;62885;51.374;6.170;2023-04-27T14:49:56;8.57;;;4.97;;
74371;SDS011;62885;51.374;6.170;2023-04-27T14:52:22;7.97;;;3.83;;
74371;SDS011;62885;51.374;6.170;2023-04-27T14:54:47;6.95;;;4.07;;